RYR3GX EPSC-EGSS
Flight info
| Callsign | RYR3GX |
|---|---|
| Flight time | 1h 34m |
| Altitude | 38000 |
| Route | PESEL L87 KETAP L619 PODUS DCT BATEL DCT NOGRO M40 RINIS |
| Aircraft | B738/M-SDE2E3FGHIRWXY/LB1 |
Departure
| Time | 2026-05-07 08:40 |
|---|---|
| Airport | Solidarity Szczecin–Goleniów Airport (EPSC) |
Arrival
| Time | 2026-05-07 10:14 |
|---|---|
| Airport | London Stansted Airport (EGSS) |
| Time | Latitude | Longitude | Altitude | Speed | Heading |
|---|---|---|---|---|---|
| 2026-05-07 08:18 | 53.59245 | 14.89397 | 104 ft | 0 kts | 49° |
| 2026-05-07 08:33 | 53.59242 | 14.89409 | 131 ft | 2 kts | 122° |
| 2026-05-07 08:33 | 53.59231 | 14.89398 | 126 ft | 3 kts | 236° |
| 2026-05-07 08:33 | 53.59219 | 14.89363 | 128 ft | 4 kts | 238° |
| 2026-05-07 08:33 | 53.59197 | 14.89316 | 129 ft | 6 kts | 219° |
| 2026-05-07 08:34 | 53.59157 | 14.89326 | 131 ft | 7 kts | 148° |
| 2026-05-07 08:34 | 53.59103 | 14.89425 | 133 ft | 17 kts | 131° |
| 2026-05-07 08:34 | 53.59006 | 14.89613 | 135 ft | 25 kts | 131° |
| 2026-05-07 08:34 | 53.58884 | 14.89851 | 139 ft | 27 kts | 129° |
| 2026-05-07 08:35 | 53.58762 | 14.90083 | 142 ft | 26 kts | 131° |
| 2026-05-07 08:35 | 53.58644 | 14.90313 | 145 ft | 28 kts | 131° |
| 2026-05-07 08:35 | 53.58517 | 14.90559 | 150 ft | 27 kts | 131° |
| 2026-05-07 08:35 | 53.58399 | 14.90789 | 152 ft | 25 kts | 131° |
| 2026-05-07 08:36 | 53.58287 | 14.91002 | 156 ft | 23 kts | 131° |
| 2026-05-07 08:36 | 53.58183 | 14.91205 | 158 ft | 23 kts | 131° |
| 2026-05-07 08:36 | 53.58073 | 14.91418 | 161 ft | 26 kts | 131° |
| 2026-05-07 08:36 | 53.57957 | 14.91641 | 163 ft | 21 kts | 131° |
| 2026-05-07 08:37 | 53.57870 | 14.91775 | 164 ft | 14 kts | 173° |
| 2026-05-07 08:37 | 53.57825 | 14.91739 | 164 ft | 0 kts | 221° |
| 2026-05-07 08:38 | 53.57785 | 14.91679 | 164 ft | 13 kts | 221° |
| 2026-05-07 08:39 | 53.57785 | 14.91559 | 165 ft | 14 kts | 309° |
| 2026-05-07 08:39 | 53.57966 | 14.91206 | 162 ft | 75 kts | 311° |
| 2026-05-07 08:39 | 53.58458 | 14.90255 | 150 ft | 138 kts | 310° |
| 2026-05-07 08:39 | 53.59159 | 14.88924 | 546 ft | 153 kts | 317° |
| 2026-05-07 08:40 | 53.59883 | 14.87583 | 1238 ft | 162 kts | 317° |
| 2026-05-07 08:40 | 53.60608 | 14.86169 | 2027 ft | 161 kts | 316° |
| 2026-05-07 08:40 | 53.61393 | 14.84622 | 2432 ft | 190 kts | 316° |
| 2026-05-07 08:40 | 53.62304 | 14.82836 | 2837 ft | 208 kts | 315° |
| 2026-05-07 08:41 | 53.63283 | 14.80924 | 3255 ft | 227 kts | 316° |
| 2026-05-07 08:41 | 53.64168 | 14.78504 | 3474 ft | 263 kts | 287° |
| 2026-05-07 08:41 | 53.64056 | 14.75375 | 4168 ft | 277 kts | 250° |
| 2026-05-07 08:41 | 53.63197 | 14.72457 | 5067 ft | 279 kts | 242° |
| 2026-05-07 08:42 | 53.62248 | 14.69585 | 5903 ft | 282 kts | 242° |
| 2026-05-07 08:42 | 53.61301 | 14.66740 | 6933 ft | 276 kts | 241° |
| 2026-05-07 08:42 | 53.60335 | 14.63916 | 7715 ft | 280 kts | 241° |
| 2026-05-07 08:42 | 53.59354 | 14.61076 | 8584 ft | 281 kts | 241° |
| 2026-05-07 08:43 | 53.58371 | 14.58236 | 9468 ft | 281 kts | 240° |
| 2026-05-07 08:43 | 53.57386 | 14.55387 | 10275 ft | 283 kts | 240° |
| 2026-05-07 08:43 | 53.56362 | 14.52426 | 10564 ft | 305 kts | 240° |
| 2026-05-07 08:43 | 53.55255 | 14.49223 | 10744 ft | 328 kts | 240° |
| 2026-05-07 08:44 | 53.54076 | 14.45813 | 11086 ft | 344 kts | 240° |
| 2026-05-07 08:44 | 53.52860 | 14.42303 | 11738 ft | 349 kts | 240° |
| 2026-05-07 08:44 | 53.51634 | 14.38767 | 12513 ft | 352 kts | 240° |
| 2026-05-07 08:44 | 53.50393 | 14.35192 | 13231 ft | 357 kts | 240° |
| 2026-05-07 08:45 | 53.49134 | 14.31573 | 13986 ft | 360 kts | 240° |
| 2026-05-07 08:45 | 53.47866 | 14.27932 | 14748 ft | 361 kts | 240° |
| 2026-05-07 08:45 | 53.46597 | 14.24297 | 15585 ft | 362 kts | 239° |
| 2026-05-07 08:45 | 53.45334 | 14.20684 | 16321 ft | 365 kts | 239° |
| 2026-05-07 08:46 | 53.44040 | 14.16979 | 16959 ft | 370 kts | 239° |
| 2026-05-07 08:46 | 53.42742 | 14.13271 | 17815 ft | 370 kts | 239° |
| 2026-05-07 08:46 | 53.41432 | 14.09532 | 18483 ft | 374 kts | 239° |
| 2026-05-07 08:46 | 53.40105 | 14.05752 | 19014 ft | 379 kts | 239° |
| 2026-05-07 08:47 | 53.38758 | 14.01921 | 19581 ft | 383 kts | 239° |
| 2026-05-07 08:47 | 53.37401 | 13.98068 | 20255 ft | 384 kts | 239° |
| 2026-05-07 08:47 | 53.36040 | 13.94210 | 20903 ft | 386 kts | 239° |
| 2026-05-07 08:47 | 53.34662 | 13.90310 | 21393 ft | 392 kts | 239° |
| 2026-05-07 08:48 | 53.33265 | 13.86363 | 21928 ft | 396 kts | 239° |
| 2026-05-07 08:48 | 53.31858 | 13.82392 | 22559 ft | 397 kts | 239° |
| 2026-05-07 08:48 | 53.30443 | 13.78407 | 23126 ft | 400 kts | 239° |
| 2026-05-07 08:48 | 53.29010 | 13.74378 | 23572 ft | 406 kts | 239° |
| 2026-05-07 08:49 | 53.27561 | 13.70309 | 24029 ft | 408 kts | 239° |
| 2026-05-07 08:49 | 53.26110 | 13.66241 | 24567 ft | 408 kts | 238° |
| 2026-05-07 08:49 | 53.24649 | 13.62152 | 25010 ft | 411 kts | 238° |
| 2026-05-07 08:49 | 53.23177 | 13.58040 | 25402 ft | 415 kts | 238° |
| 2026-05-07 08:50 | 53.21690 | 13.53895 | 25828 ft | 417 kts | 237° |
| 2026-05-07 08:50 | 53.20190 | 13.49719 | 26158 ft | 422 kts | 237° |
| 2026-05-07 08:50 | 53.18671 | 13.45500 | 26544 ft | 425 kts | 237° |
| 2026-05-07 08:50 | 53.17147 | 13.41267 | 27001 ft | 426 kts | 237° |
| 2026-05-07 08:51 | 53.15618 | 13.37030 | 27463 ft | 427 kts | 237° |
| 2026-05-07 08:51 | 53.14083 | 13.32784 | 27889 ft | 429 kts | 237° |
| 2026-05-07 08:51 | 53.12538 | 13.28522 | 28286 ft | 431 kts | 237° |
| 2026-05-07 08:51 | 53.10985 | 13.24242 | 28642 ft | 433 kts | 237° |
| 2026-05-07 08:52 | 53.09422 | 13.19938 | 29010 ft | 435 kts | 237° |
| 2026-05-07 08:52 | 53.08383 | 13.17081 | 29231 ft | 437 kts | 237° |
| 2026-05-07 08:52 | 53.06805 | 13.12747 | 29596 ft | 439 kts | 237° |
| 2026-05-07 08:52 | 53.05221 | 13.08408 | 29975 ft | 440 kts | 237° |
| 2026-05-07 08:53 | 53.03636 | 13.04072 | 30403 ft | 438 kts | 237° |
| 2026-05-07 08:53 | 53.02060 | 12.99764 | 30874 ft | 435 kts | 236° |
| 2026-05-07 08:53 | 53.00482 | 12.95465 | 31145 ft | 438 kts | 236° |
| 2026-05-07 08:53 | 52.98893 | 12.91142 | 31441 ft | 438 kts | 237° |
| 2026-05-07 08:54 | 52.97310 | 12.86840 | 31895 ft | 436 kts | 237° |
| 2026-05-07 08:54 | 52.95794 | 12.82510 | 32397 ft | 433 kts | 242° |
| 2026-05-07 08:54 | 52.94632 | 12.77908 | 32826 ft | 432 kts | 247° |
| 2026-05-07 08:54 | 52.93580 | 12.73245 | 33243 ft | 432 kts | 248° |
| 2026-05-07 08:55 | 52.92532 | 12.68573 | 33507 ft | 433 kts | 248° |
| 2026-05-07 08:55 | 52.91475 | 12.63886 | 33805 ft | 434 kts | 248° |
| 2026-05-07 08:55 | 52.90413 | 12.59215 | 34179 ft | 432 kts | 248° |
| 2026-05-07 08:55 | 52.89349 | 12.54577 | 34496 ft | 431 kts | 248° |
| 2026-05-07 08:56 | 52.88276 | 12.49936 | 34712 ft | 432 kts | 248° |
| 2026-05-07 08:56 | 52.87195 | 12.45280 | 34922 ft | 434 kts | 248° |
| 2026-05-07 08:56 | 52.86123 | 12.40683 | 35197 ft | 434 kts | 248° |
| 2026-05-07 08:56 | 52.85037 | 12.36033 | 35464 ft | 433 kts | 247° |
| 2026-05-07 08:57 | 52.83949 | 12.31387 | 35706 ft | 434 kts | 247° |
| 2026-05-07 08:57 | 52.82856 | 12.26731 | 35922 ft | 435 kts | 247° |
| 2026-05-07 08:57 | 52.81761 | 12.22073 | 36153 ft | 435 kts | 247° |
| 2026-05-07 08:57 | 52.80664 | 12.17417 | 36405 ft | 435 kts | 247° |
| 2026-05-07 08:58 | 52.79565 | 12.12759 | 36625 ft | 436 kts | 248° |
| 2026-05-07 08:58 | 52.78457 | 12.08079 | 36775 ft | 438 kts | 247° |
| 2026-05-07 08:58 | 52.77347 | 12.03396 | 37011 ft | 438 kts | 247° |
| 2026-05-07 08:58 | 52.76236 | 11.98719 | 37276 ft | 437 kts | 247° |
| 2026-05-07 08:59 | 52.75124 | 11.94050 | 37511 ft | 437 kts | 247° |
| 2026-05-07 08:59 | 52.74009 | 11.89378 | 37699 ft | 438 kts | 247° |
| 2026-05-07 08:59 | 52.72891 | 11.84700 | 37906 ft | 438 kts | 247° |
| 2026-05-07 08:59 | 52.71768 | 11.80018 | 38004 ft | 441 kts | 247° |
| 2026-05-07 09:00 | 52.69504 | 11.70603 | 37997 ft | 440 kts | 247° |
| 2026-05-07 09:00 | 52.67253 | 11.61276 | 38000 ft | 436 kts | 247° |
| 2026-05-07 09:01 | 52.65007 | 11.52017 | 37992 ft | 434 kts | 247° |
| 2026-05-07 09:01 | 52.62762 | 11.42796 | 38005 ft | 433 kts | 247° |
| 2026-05-07 09:02 | 52.60511 | 11.33591 | 38017 ft | 434 kts | 247° |
| 2026-05-07 09:02 | 52.58249 | 11.24375 | 38012 ft | 435 kts | 247° |
| 2026-05-07 09:03 | 52.55972 | 11.15137 | 38020 ft | 437 kts | 247° |
| 2026-05-07 09:03 | 52.54420 | 11.05545 | 38005 ft | 441 kts | 264° |
| 2026-05-07 09:04 | 52.54023 | 10.95465 | 38007 ft | 444 kts | 265° |
| 2026-05-07 09:04 | 52.53664 | 10.85328 | 38012 ft | 445 kts | 265° |
| 2026-05-07 09:05 | 52.53268 | 10.75170 | 38016 ft | 446 kts | 265° |
| 2026-05-07 09:05 | 52.52842 | 10.64997 | 38017 ft | 447 kts | 264° |
| 2026-05-07 09:06 | 52.52400 | 10.54824 | 38023 ft | 447 kts | 264° |
| 2026-05-07 09:06 | 52.51947 | 10.44652 | 38028 ft | 447 kts | 264° |
| 2026-05-07 09:07 | 52.51486 | 10.34482 | 38016 ft | 446 kts | 264° |
| 2026-05-07 09:07 | 52.51021 | 10.24335 | 38019 ft | 445 kts | 264° |
| 2026-05-07 09:08 | 52.50547 | 10.14209 | 38023 ft | 445 kts | 264° |
| 2026-05-07 09:08 | 52.50065 | 10.04106 | 38018 ft | 444 kts | 264° |
| 2026-05-07 09:09 | 52.49574 | 9.94016 | 38030 ft | 443 kts | 264° |
| 2026-05-07 09:09 | 52.49076 | 9.83945 | 38022 ft | 443 kts | 264° |
| 2026-05-07 09:10 | 52.48570 | 9.73891 | 38024 ft | 442 kts | 264° |
| 2026-05-07 09:10 | 52.48056 | 9.63846 | 38024 ft | 442 kts | 264° |
| 2026-05-07 09:11 | 52.47534 | 9.53805 | 38023 ft | 442 kts | 264° |
| 2026-05-07 09:11 | 52.47003 | 9.43775 | 38023 ft | 442 kts | 264° |
| 2026-05-07 09:12 | 52.46464 | 9.33746 | 38015 ft | 442 kts | 264° |
| 2026-05-07 09:12 | 52.45916 | 9.23711 | 38009 ft | 442 kts | 264° |
| 2026-05-07 09:13 | 52.45359 | 9.13679 | 38024 ft | 442 kts | 264° |
| 2026-05-07 09:13 | 52.44794 | 9.03647 | 38018 ft | 442 kts | 264° |
| 2026-05-07 09:14 | 52.44220 | 8.93603 | 38030 ft | 443 kts | 264° |
| 2026-05-07 09:14 | 52.43640 | 8.83614 | 38021 ft | 443 kts | 264° |
| 2026-05-07 09:15 | 52.43043 | 8.73494 | 38027 ft | 444 kts | 264° |
| 2026-05-07 09:15 | 52.42446 | 8.63492 | 38019 ft | 444 kts | 264° |
| 2026-05-07 09:16 | 52.41835 | 8.53426 | 38033 ft | 444 kts | 263° |
| 2026-05-07 09:16 | 52.41215 | 8.43353 | 38048 ft | 445 kts | 264° |
| 2026-05-07 09:17 | 52.40587 | 8.33276 | 38041 ft | 445 kts | 263° |
| 2026-05-07 09:17 | 52.39950 | 8.23204 | 38046 ft | 445 kts | 263° |
| 2026-05-07 09:18 | 52.39304 | 8.13137 | 38041 ft | 445 kts | 263° |
| 2026-05-07 09:18 | 52.38650 | 8.03071 | 38042 ft | 444 kts | 263° |
| 2026-05-07 09:19 | 52.37988 | 7.93017 | 38046 ft | 444 kts | 263° |
| 2026-05-07 09:19 | 52.37317 | 7.82955 | 38038 ft | 444 kts | 263° |
| 2026-05-07 09:20 | 52.36638 | 7.72916 | 38043 ft | 444 kts | 263° |
| 2026-05-07 09:20 | 52.35951 | 7.62874 | 38044 ft | 444 kts | 263° |
| 2026-05-07 09:21 | 52.35256 | 7.52848 | 38041 ft | 443 kts | 263° |
| 2026-05-07 09:21 | 52.34552 | 7.42830 | 38042 ft | 443 kts | 263° |
| 2026-05-07 09:22 | 52.33841 | 7.32820 | 38035 ft | 443 kts | 263° |
| 2026-05-07 09:22 | 52.33126 | 7.22878 | 38035 ft | 443 kts | 263° |
| 2026-05-07 09:23 | 52.32393 | 7.12814 | 38040 ft | 443 kts | 263° |
| 2026-05-07 09:23 | 52.31656 | 7.02809 | 38031 ft | 443 kts | 263° |
| 2026-05-07 09:24 | 52.30911 | 6.92811 | 38042 ft | 443 kts | 262° |
| 2026-05-07 09:24 | 52.30157 | 6.82815 | 38037 ft | 443 kts | 262° |
| 2026-05-07 09:25 | 52.29400 | 6.72886 | 38045 ft | 443 kts | 262° |
| 2026-05-07 09:25 | 52.28628 | 6.62887 | 38041 ft | 444 kts | 262° |
| 2026-05-07 09:26 | 52.27849 | 6.52895 | 38044 ft | 444 kts | 262° |
| 2026-05-07 09:26 | 52.27061 | 6.42897 | 38050 ft | 444 kts | 262° |
| 2026-05-07 09:27 | 52.26263 | 6.32896 | 38042 ft | 444 kts | 262° |
| 2026-05-07 09:28 | 52.25050 | 6.17899 | 38050 ft | 444 kts | 262° |
| 2026-05-07 09:28 | 52.24231 | 6.07904 | 38046 ft | 444 kts | 262° |
| 2026-05-07 09:29 | 52.23404 | 5.97914 | 38049 ft | 444 kts | 262° |
| 2026-05-07 09:29 | 52.22569 | 5.87937 | 38055 ft | 444 kts | 262° |
| 2026-05-07 09:30 | 52.21725 | 5.77963 | 38049 ft | 444 kts | 262° |
| 2026-05-07 09:30 | 52.20874 | 5.68004 | 38050 ft | 444 kts | 262° |
| 2026-05-07 09:31 | 52.20015 | 5.58050 | 38050 ft | 443 kts | 261° |
| 2026-05-07 09:31 | 52.19148 | 5.48104 | 38050 ft | 443 kts | 261° |
| 2026-05-07 09:32 | 52.18273 | 5.38173 | 38060 ft | 443 kts | 261° |
| 2026-05-07 09:32 | 52.17391 | 5.28252 | 38065 ft | 443 kts | 261° |
| 2026-05-07 09:33 | 52.16500 | 5.18334 | 38054 ft | 443 kts | 261° |
| 2026-05-07 09:33 | 52.15600 | 5.08413 | 38072 ft | 443 kts | 261° |
| 2026-05-07 09:34 | 52.14692 | 4.98498 | 38072 ft | 443 kts | 261° |
| 2026-05-07 09:34 | 52.13776 | 4.88584 | 38079 ft | 443 kts | 261° |
| 2026-05-07 09:35 | 52.12850 | 4.78667 | 38073 ft | 444 kts | 261° |
| 2026-05-07 09:35 | 52.11916 | 4.68747 | 38070 ft | 444 kts | 261° |
| 2026-05-07 09:36 | 52.10971 | 4.58811 | 38070 ft | 444 kts | 261° |
| 2026-05-07 09:36 | 52.10018 | 4.48877 | 38073 ft | 445 kts | 261° |
| 2026-05-07 09:37 | 52.09056 | 4.38942 | 38069 ft | 445 kts | 261° |
| 2026-05-07 09:37 | 52.08085 | 4.29003 | 38078 ft | 445 kts | 261° |
| 2026-05-07 09:38 | 52.07148 | 4.19502 | 38079 ft | 445 kts | 261° |
| 2026-05-07 09:38 | 52.06328 | 4.11252 | 38083 ft | 445 kts | 260° |
| 2026-05-07 09:39 | 52.05334 | 4.01324 | 38079 ft | 445 kts | 260° |
| 2026-05-07 09:39 | 52.04332 | 3.91408 | 38093 ft | 445 kts | 260° |
| 2026-05-07 09:40 | 52.03322 | 3.81503 | 38074 ft | 441 kts | 260° |
| 2026-05-07 09:40 | 52.02826 | 3.76670 | 38061 ft | 426 kts | 260° |
| 2026-05-07 09:40 | 52.02345 | 3.71999 | 38061 ft | 413 kts | 260° |
| 2026-05-07 09:40 | 52.01875 | 3.67454 | 37885 ft | 405 kts | 260° |
| 2026-05-07 09:41 | 52.01410 | 3.62976 | 37523 ft | 401 kts | 260° |
| 2026-05-07 09:41 | 52.00940 | 3.58471 | 36616 ft | 411 kts | 260° |
| 2026-05-07 09:41 | 52.00455 | 3.53833 | 35596 ft | 424 kts | 260° |
| 2026-05-07 09:41 | 51.99953 | 3.49062 | 34694 ft | 434 kts | 260° |
| 2026-05-07 09:42 | 51.99440 | 3.44190 | 33813 ft | 441 kts | 260° |
| 2026-05-07 09:42 | 51.98920 | 3.39292 | 33196 ft | 440 kts | 260° |
| 2026-05-07 09:42 | 51.98403 | 3.34435 | 32750 ft | 434 kts | 260° |
| 2026-05-07 09:42 | 51.97891 | 3.29641 | 32305 ft | 429 kts | 260° |
| 2026-05-07 09:43 | 51.97385 | 3.24899 | 31826 ft | 425 kts | 260° |
| 2026-05-07 09:43 | 51.96880 | 3.20196 | 31355 ft | 421 kts | 260° |
| 2026-05-07 09:43 | 51.96408 | 3.15527 | 30876 ft | 418 kts | 262° |
| 2026-05-07 09:43 | 51.96062 | 3.10860 | 30384 ft | 416 kts | 264° |
| 2026-05-07 09:44 | 51.95778 | 3.06221 | 29912 ft | 412 kts | 264° |
| 2026-05-07 09:44 | 51.95507 | 3.01617 | 29403 ft | 408 kts | 264° |
| 2026-05-07 09:44 | 51.95232 | 2.97061 | 28861 ft | 405 kts | 264° |
| 2026-05-07 09:44 | 51.94948 | 2.92540 | 28311 ft | 402 kts | 264° |
| 2026-05-07 09:45 | 51.94655 | 2.88031 | 27716 ft | 402 kts | 264° |
| 2026-05-07 09:45 | 51.94358 | 2.83548 | 27252 ft | 398 kts | 264° |
| 2026-05-07 09:45 | 51.94062 | 2.79115 | 26794 ft | 394 kts | 264° |
| 2026-05-07 09:45 | 51.93767 | 2.74723 | 26375 ft | 390 kts | 264° |
| 2026-05-07 09:46 | 51.93472 | 2.70370 | 25934 ft | 387 kts | 264° |
| 2026-05-07 09:46 | 51.93178 | 2.66051 | 25514 ft | 384 kts | 263° |
| 2026-05-07 09:46 | 51.92885 | 2.61774 | 25097 ft | 380 kts | 263° |
| 2026-05-07 09:46 | 51.92593 | 2.57536 | 24678 ft | 378 kts | 263° |
| 2026-05-07 09:47 | 51.92301 | 2.53318 | 24256 ft | 375 kts | 263° |
| 2026-05-07 09:47 | 51.92011 | 2.49135 | 23844 ft | 373 kts | 263° |
| 2026-05-07 09:47 | 51.91720 | 2.44971 | 23380 ft | 371 kts | 263° |
| 2026-05-07 09:47 | 51.91432 | 2.40839 | 22906 ft | 368 kts | 263° |
| 2026-05-07 09:48 | 51.91142 | 2.36734 | 22488 ft | 365 kts | 263° |
| 2026-05-07 09:48 | 51.90855 | 2.32675 | 22121 ft | 361 kts | 264° |
| 2026-05-07 09:48 | 51.90667 | 2.28686 | 22104 ft | 350 kts | 267° |
| 2026-05-07 09:48 | 51.90581 | 2.24773 | 22086 ft | 344 kts | 268° |
| 2026-05-07 09:49 | 51.90518 | 2.20968 | 22075 ft | 332 kts | 268° |
| 2026-05-07 09:49 | 51.90454 | 2.17303 | 22070 ft | 320 kts | 268° |
| 2026-05-07 09:49 | 51.90384 | 2.13778 | 22059 ft | 307 kts | 268° |
| 2026-05-07 09:49 | 51.90309 | 2.10364 | 21928 ft | 300 kts | 268° |
| 2026-05-07 09:50 | 51.90231 | 2.06968 | 21631 ft | 298 kts | 268° |
| 2026-05-07 09:50 | 51.90151 | 2.03659 | 21219 ft | 300 kts | 268° |
| 2026-05-07 09:50 | 51.90068 | 2.00255 | 20734 ft | 305 kts | 267° |
| 2026-05-07 09:50 | 51.89980 | 1.96743 | 19788 ft | 323 kts | 267° |
| 2026-05-07 09:51 | 51.89884 | 1.92978 | 18750 ft | 346 kts | 267° |
| 2026-05-07 09:51 | 51.89923 | 1.89090 | 18435 ft | 346 kts | 280° |
| 2026-05-07 09:51 | 51.90713 | 1.85343 | 17838 ft | 359 kts | 297° |
| 2026-05-07 09:51 | 51.91890 | 1.81811 | 17478 ft | 356 kts | 298° |
| 2026-05-07 09:52 | 51.93075 | 1.78325 | 17144 ft | 350 kts | 297° |
| 2026-05-07 09:52 | 51.93988 | 1.74723 | 16848 ft | 343 kts | 284° |
| 2026-05-07 09:52 | 51.94371 | 1.70959 | 16585 ft | 336 kts | 276° |
| 2026-05-07 09:52 | 51.94620 | 1.67220 | 16292 ft | 333 kts | 276° |
| 2026-05-07 09:53 | 51.94860 | 1.63498 | 16011 ft | 331 kts | 276° |
| 2026-05-07 09:53 | 51.95100 | 1.59797 | 15729 ft | 329 kts | 276° |
| 2026-05-07 09:53 | 51.95343 | 1.56113 | 15447 ft | 328 kts | 276° |
| 2026-05-07 09:53 | 51.95588 | 1.52445 | 15174 ft | 327 kts | 276° |
| 2026-05-07 09:54 | 51.95837 | 1.48772 | 14905 ft | 330 kts | 276° |
| 2026-05-07 09:54 | 51.96089 | 1.45059 | 14627 ft | 332 kts | 276° |
| 2026-05-07 09:54 | 51.96341 | 1.41334 | 14343 ft | 332 kts | 276° |
| 2026-05-07 09:54 | 51.96592 | 1.37628 | 14061 ft | 330 kts | 276° |
| 2026-05-07 09:55 | 51.96841 | 1.33938 | 13756 ft | 328 kts | 276° |
| 2026-05-07 09:55 | 51.97089 | 1.30270 | 13453 ft | 326 kts | 276° |
| 2026-05-07 09:55 | 51.97334 | 1.26626 | 13155 ft | 325 kts | 276° |
| 2026-05-07 09:55 | 51.97577 | 1.22995 | 12880 ft | 323 kts | 276° |
| 2026-05-07 09:56 | 51.97818 | 1.19383 | 12609 ft | 321 kts | 276° |
| 2026-05-07 09:56 | 51.98056 | 1.15788 | 12335 ft | 320 kts | 276° |
| 2026-05-07 09:56 | 51.98292 | 1.12209 | 12065 ft | 319 kts | 276° |
| 2026-05-07 09:56 | 51.98526 | 1.08631 | 11797 ft | 318 kts | 276° |
| 2026-05-07 09:57 | 51.98759 | 1.05067 | 11524 ft | 318 kts | 276° |
| 2026-05-07 09:57 | 51.98991 | 1.01507 | 11260 ft | 317 kts | 276° |
| 2026-05-07 09:57 | 51.99220 | 0.97951 | 10993 ft | 317 kts | 277° |
| 2026-05-07 09:57 | 51.99450 | 0.94398 | 10722 ft | 317 kts | 276° |
| 2026-05-07 09:58 | 51.99675 | 0.90883 | 10439 ft | 308 kts | 276° |
| 2026-05-07 09:58 | 51.99890 | 0.87501 | 10173 ft | 295 kts | 276° |
| 2026-05-07 09:58 | 52.00096 | 0.84260 | 9917 ft | 283 kts | 276° |
| 2026-05-07 09:58 | 52.00293 | 0.81145 | 9657 ft | 272 kts | 276° |
| 2026-05-07 09:59 | 52.00480 | 0.78171 | 9502 ft | 258 kts | 276° |
| 2026-05-07 09:59 | 52.00660 | 0.75312 | 9245 ft | 251 kts | 276° |
| 2026-05-07 09:59 | 52.00834 | 0.72539 | 9017 ft | 244 kts | 275° |
| 2026-05-07 09:59 | 52.01005 | 0.69806 | 8812 ft | 243 kts | 275° |
| 2026-05-07 10:00 | 52.01176 | 0.67054 | 8615 ft | 248 kts | 275° |
| 2026-05-07 10:00 | 52.01349 | 0.64232 | 8325 ft | 252 kts | 274° |
| 2026-05-07 10:00 | 52.01522 | 0.61418 | 8091 ft | 250 kts | 274° |
| 2026-05-07 10:00 | 52.01666 | 0.58603 | 7720 ft | 253 kts | 272° |
| 2026-05-07 10:01 | 52.01761 | 0.55720 | 7319 ft | 258 kts | 271° |
| 2026-05-07 10:01 | 52.01854 | 0.52776 | 6897 ft | 264 kts | 271° |
| 2026-05-07 10:01 | 52.01952 | 0.49772 | 6466 ft | 269 kts | 271° |
| 2026-05-07 10:01 | 52.02060 | 0.46734 | 6066 ft | 268 kts | 271° |
| 2026-05-07 10:02 | 52.02176 | 0.43800 | 5995 ft | 252 kts | 271° |
| 2026-05-07 10:02 | 52.02294 | 0.41046 | 5967 ft | 240 kts | 271° |
| 2026-05-07 10:02 | 52.02412 | 0.38380 | 5983 ft | 235 kts | 271° |
| 2026-05-07 10:02 | 52.02521 | 0.35722 | 6003 ft | 238 kts | 267° |
| 2026-05-07 10:03 | 52.02159 | 0.33177 | 5990 ft | 227 kts | 236° |
| 2026-05-07 10:03 | 52.01184 | 0.31287 | 5993 ft | 213 kts | 222° |
| 2026-05-07 10:03 | 52.00152 | 0.29649 | 5979 ft | 202 kts | 221° |
| 2026-05-07 10:03 | 51.99161 | 0.28099 | 5987 ft | 196 kts | 221° |
| 2026-05-07 10:04 | 51.98181 | 0.26570 | 5990 ft | 195 kts | 221° |
| 2026-05-07 10:04 | 51.97205 | 0.25048 | 6003 ft | 195 kts | 221° |
| 2026-05-07 10:04 | 51.96228 | 0.23529 | 5962 ft | 194 kts | 221° |
| 2026-05-07 10:04 | 51.95257 | 0.22018 | 5763 ft | 194 kts | 221° |
| 2026-05-07 10:05 | 51.94276 | 0.20494 | 5511 ft | 196 kts | 221° |
| 2026-05-07 10:05 | 51.93289 | 0.18968 | 5319 ft | 196 kts | 221° |
| 2026-05-07 10:05 | 51.92301 | 0.17444 | 5118 ft | 196 kts | 221° |
| 2026-05-07 10:05 | 51.91314 | 0.15928 | 4913 ft | 196 kts | 221° |
| 2026-05-07 10:06 | 51.90325 | 0.14416 | 4702 ft | 195 kts | 221° |
| 2026-05-07 10:06 | 51.89338 | 0.12906 | 4508 ft | 195 kts | 221° |
| 2026-05-07 10:06 | 51.88352 | 0.11402 | 4308 ft | 195 kts | 221° |
| 2026-05-07 10:06 | 51.87367 | 0.09902 | 4127 ft | 194 kts | 221° |
| 2026-05-07 10:07 | 51.86391 | 0.08418 | 3917 ft | 192 kts | 221° |
| 2026-05-07 10:07 | 51.85415 | 0.06936 | 3611 ft | 193 kts | 221° |
| 2026-05-07 10:07 | 51.84433 | 0.05449 | 3345 ft | 193 kts | 221° |
| 2026-05-07 10:07 | 51.83454 | 0.03967 | 3071 ft | 193 kts | 221° |
| 2026-05-07 10:08 | 51.82472 | 0.02489 | 2827 ft | 192 kts | 221° |
| 2026-05-07 10:08 | 51.81494 | 0.01019 | 2559 ft | 192 kts | 220° |
| 2026-05-07 10:08 | 51.80371 | -0.00068 | 2248 ft | 189 kts | 187° |
| 2026-05-07 10:08 | 51.79137 | 0.00431 | 2033 ft | 189 kts | 138° |
| 2026-05-07 10:09 | 51.78278 | 0.02047 | 2058 ft | 192 kts | 130° |
| 2026-05-07 10:09 | 51.77433 | 0.03677 | 2035 ft | 191 kts | 131° |
| 2026-05-07 10:09 | 51.76589 | 0.05307 | 1988 ft | 187 kts | 130° |
| 2026-05-07 10:09 | 51.75978 | 0.07125 | 1977 ft | 189 kts | 98° |
| 2026-05-07 10:10 | 51.76341 | 0.09111 | 1981 ft | 190 kts | 49° |
| 2026-05-07 10:10 | 51.77463 | 0.10046 | 2010 ft | 179 kts | 15° |
| 2026-05-07 10:10 | 51.78633 | 0.10572 | 1978 ft | 174 kts | 21° |
| 2026-05-07 10:10 | 51.79768 | 0.11285 | 2000 ft | 176 kts | 25° |
| 2026-05-07 10:11 | 51.80813 | 0.12273 | 2005 ft | 173 kts | 38° |
| 2026-05-07 10:11 | 51.81771 | 0.13435 | 1997 ft | 173 kts | 41° |
| 2026-05-07 10:11 | 51.82676 | 0.14710 | 1765 ft | 169 kts | 45° |
| 2026-05-07 10:11 | 51.83505 | 0.15958 | 1575 ft | 155 kts | 45° |
| 2026-05-07 10:12 | 51.84273 | 0.17117 | 1324 ft | 146 kts | 45° |
| 2026-05-07 10:12 | 51.85020 | 0.18222 | 1118 ft | 146 kts | 45° |
| 2026-05-07 10:12 | 51.85760 | 0.19364 | 934 ft | 149 kts | 45° |
| 2026-05-07 10:12 | 51.86521 | 0.20522 | 722 ft | 150 kts | 45° |
| 2026-05-07 10:13 | 51.87277 | 0.21642 | 509 ft | 144 kts | 45° |
| 2026-05-07 10:13 | 51.88006 | 0.22739 | 350 ft | 138 kts | 44° |
| 2026-05-07 10:13 | 51.88551 | 0.23558 | 349 ft | 76 kts | 43° |
| 2026-05-07 10:13 | 51.88871 | 0.24040 | 345 ft | 56 kts | 43° |
| 2026-05-07 10:14 | 51.89066 | 0.24412 | 351 ft | 35 kts | 63° |
| 2026-05-07 10:14 | 51.89132 | 0.24664 | 353 ft | 14 kts | 68° |
| 2026-05-07 10:14 | 51.89166 | 0.24804 | 350 ft | 13 kts | 75° |
| 2026-05-07 10:14 | 51.89157 | 0.24914 | 351 ft | 8 kts | 87° |
| 2026-05-07 10:15 | 51.89186 | 0.24993 | 349 ft | 10 kts | 44° |
| 2026-05-07 10:15 | 51.89237 | 0.25107 | 351 ft | 15 kts | 58° |
| 2026-05-07 10:15 | 51.89300 | 0.25241 | 351 ft | 15 kts | 46° |
| 2026-05-07 10:15 | 51.89375 | 0.25351 | 351 ft | 14 kts | 40° |
| 2026-05-07 10:16 | 51.89414 | 0.25478 | 348 ft | 14 kts | 111° |
| 2026-05-07 10:16 | 51.89355 | 0.25591 | 348 ft | 13 kts | 133° |
| 2026-05-07 10:16 | 51.89294 | 0.25697 | 348 ft | 13 kts | 133° |
| 2026-05-07 10:16 | 51.89236 | 0.25800 | 355 ft | 12 kts | 133° |
| 2026-05-07 10:17 | 51.89178 | 0.25900 | 348 ft | 12 kts | 133° |
| 2026-05-07 10:17 | 51.89156 | 0.25998 | 348 ft | 8 kts | 53° |
| 2026-05-07 10:17 | 51.89182 | 0.26041 | 351 ft | 3 kts | 43° |
| 2026-05-07 10:17 | 51.89187 | 0.26047 | 350 ft | 1 kts | 42° |
| 2026-05-07 10:18 | 51.89187 | 0.26048 | 350 ft | 0 kts | 42° |